Hlavní strana
METAR-TAF:

METAR-TAF

Letiště :

Orsk, Rusko

zeměpisná šířka: 51-04-18N, zeměpisná délka: 058-35-48E, výška: 277 m

Aktuální stav počasí

Zpráva byla vytvořena před 52 minutami, v 01:00 UTC
Jihovýchodní vítr 8 kt
Teplota -15°C
Vlhkost vzduchu 78%
Tlak 1026 hPa
Viditelnost 10 km a více
Žádná oblačnost pod 1500 m, nevyskytují se cumulonimby.

METAR: UWOR 250100Z 14004MPS CAVOK M15/M18 Q1026 R25/CLRD60 NOSIG RMK QFE746/0995

Čas: 06:52 (01:52 UTC)

Předpověď počasí

Zpráva byla vytvořena před 2 hodinami a 56 minutami, v 22:56 UTC
Předpověď platná od 24 v 23 UTC do 25 v 09 UTC
Jihojihovýchodní vítr 10 kt s nárazy do 19 kt
Viditelnost: 6000 m
Oblačno až skoro zataženo ve výšce 500 ft
Dočasný
od 24 v 23 UTC do 25 v 09 UTC
Jižní vítr 12 kt s nárazy do 21 kt
Viditelnost: 0300 m
ve výšce 200 ft
mrznoucí mlha

TAF: UWOR 242256Z 2423/2509 16005G10MPS 6000 BKN005 TXM07/2506Z TNM13/2503Z TEMPO 2423/2509 17006G11MPS 0300 FZFG VV002

Stav a předpovědi počasí z více než 4 000 letišť (zprávy METAR a TAF).

Červené a žluté tečky na mapě představují dostupné meteorologické stanice.

Když kurzor umístíte na tečku, zobrazí se název stanice.

Pak kliknutím zobrazíte stav a předpověď počasí.

Chcete-li změnit mapu, kliknutím na zelené tlačítko se znaménkem +mapu přiblížíte, kliknutím na zelené tlačítko se znaménkem – mapu oddálíte a kliknutím na zelené šipky přejdete na sousední mapy.


METAR-TAF: